Time;durP1;ratioP1;P1;durP2;ratioP2;P2;SDS_P1;SDS_P2;PMS_P1;PMS_P2;Temp;Humidity;BMP_temperature;BMP_pressure;BME280_temperature;BME280_humidity;BME280_pressure;Samples;Min_cycle;Max_cycle;Signal;HPM_P1;HPM_P2
2023/12/01 05:02:33;;;;;;;7.63;4.70;;;-2.00;99.90;;;;;;4963100;23;20300;-71
2023/12/01 05:05:00;;;;;;;8.13;4.68;;;-2.00;99.90;;;;;;4941808;29;20552;-71
2023/12/01 05:07:31;;;;;;;7.45;4.70;;;-2.10;99.90;;;;;;4935977;29;20230;-70
2023/12/01 05:09:58;;;;;;;6.75;5.47;;;-2.20;99.90;;;;;;4937011;29;21985;-71
2023/12/01 05:12:24;;;;;;;6.95;4.35;;;-2.20;99.90;;;;;;4935014;29;20234;-70
2023/12/01 05:14:51;;;;;;;11.90;5.78;;;-2.20;99.90;;;;;;4945588;29;20212;-70
2023/12/01 05:17:18;;;;;;;10.27;7.03;;;-2.20;99.90;;;;;;4939741;29;20201;-70
2023/12/01 05:19:46;;;;;;;7.75;7.03;;;-2.20;99.90;;;;;;4952149;28;20205;-70
2023/12/01 05:22:12;;;;;;;6.47;4.65;;;-2.20;99.90;;;;;;4936760;28;20221;-71
2023/12/01 05:24:40;;;;;;;5.78;3.58;;;-2.20;99.90;;;;;;4935309;29;20727;-70
2023/12/01 05:27:08;;;;;;;6.15;4.65;;;-2.20;99.90;;;;;;4943113;29;20218;-70
2023/12/01 05:29:35;;;;;;;6.50;4.75;;;-2.30;99.90;;;;;;4943659;29;20218;-70
2023/12/01 05:32:02;;;;;;;5.75;5.30;;;-2.20;99.90;;;;;;4939231;28;20257;-70
2023/12/01 05:34:29;;;;;;;4.55;3.10;;;-2.20;99.90;;;;;;4934095;29;20206;-70
2023/12/01 05:36:57;;;;;;;8.45;4.80;;;-2.20;99.90;;;;;;4934202;29;20222;-70
2023/12/01 05:39:23;;;;;;;9.50;5.60;;;-2.10;99.90;;;;;;4933192;29;20211;-71
2023/12/01 05:41:50;;;;;;;9.00;6.80;;;-2.00;99.90;;;;;;4938382;28;20240;-70
2023/12/01 05:44:17;;;;;;;5.40;4.82;;;-2.00;99.90;;;;;;4933820;29;20226;-71
2023/12/01 05:46:43;;;;;;;5.90;4.60;;;-2.00;99.90;;;;;;4933177;29;20565;-71
2023/12/01 05:49:10;;;;;;;9.75;5.40;;;-2.00;99.90;;;;;;4933018;29;20217;-71
2023/12/01 05:51:37;;;;;;;10.43;5.63;;;-1.90;99.90;;;;;;4933133;29;20229;-71
2023/12/01 05:54:05;;;;;;;9.68;5.20;;;-1.90;99.90;;;;;;4933697;29;20212;-70
2023/12/01 05:56:32;;;;;;;15.02;7.03;;;-1.90;99.90;;;;;;4935639;29;20212;-71
2023/12/01 05:58:58;;;;;;;6.43;5.28;;;-1.80;99.90;;;;;;4936499;29;20210;-71
2023/12/01 06:01:25;;;;;;;9.07;8.18;;;-1.90;99.90;;;;;;4933146;29;20234;-71
2023/12/01 06:03:52;;;;;;;8.38;7.00;;;-1.80;99.90;;;;;;4931075;29;20233;-71
2023/12/01 06:06:19;;;;;;;9.93;5.47;;;-1.80;99.90;;;;;;4934017;29;20580;-70
2023/12/01 06:08:45;;;;;;;12.23;6.47;;;-1.70;99.90;;;;;;4934349;29;20585;-71
2023/12/01 06:11:13;;;;;;;6.93;5.75;;;-1.80;99.90;;;;;;4934706;29;20253;-71
2023/12/01 06:13:40;;;;;;;9.77;5.90;;;-1.80;99.90;;;;;;4934623;29;20209;-71
2023/12/01 06:16:07;;;;;;;13.80;8.50;;;-1.70;99.90;;;;;;4926263;29;20289;-70
2023/12/01 06:18:34;;;;;;;8.15;5.85;;;-1.70;99.90;;;;;;4932338;29;20219;-70
2023/12/01 06:21:01;;;;;;;9.90;7.53;;;-1.70;99.90;;;;;;4931087;29;20320;-70
2023/12/01 06:23:28;;;;;;;13.27;10.20;;;-1.70;99.90;;;;;;4933277;29;20238;-70
2023/12/01 06:25:54;;;;;;;10.02;7.25;;;-1.60;99.90;;;;;;4933767;29;21074;-70
2023/12/01 06:28:23;;;;;;;14.35;8.50;;;-1.60;99.90;;;;;;4933658;29;20233;-70
2023/12/01 06:30:50;;;;;;;8.00;6.47;;;-1.60;99.90;;;;;;4933850;29;20706;-70
2023/12/01 06:33:17;;;;;;;6.90;6.18;;;-1.60;99.90;;;;;;4930603;29;20688;-72
2023/12/01 06:35:44;;;;;;;10.60;5.75;;;-1.60;99.90;;;;;;4931653;29;20202;-71
2023/12/01 06:38:11;;;;;;;13.27;7.15;;;-1.60;99.90;;;;;;4931035;29;20222;-71
2023/12/01 06:40:39;;;;;;;12.05;6.13;;;-1.50;99.90;;;;;;4934863;29;20597;-71
2023/12/01 06:43:09;;;;;;;11.55;6.45;;;-1.50;99.90;;;;;;4933797;29;20254;-71
2023/12/01 06:45:37;;;;;;;12.52;8.23;;;-1.50;99.90;;;;;;4934387;29;20770;-71
2023/12/01 06:48:04;;;;;;;13.15;8.00;;;-1.50;99.90;;;;;;4933943;29;20228;-71
2023/12/01 06:50:31;;;;;;;11.88;7.15;;;-1.50;99.90;;;;;;4931367;29;20214;-71
2023/12/01 06:52:59;;;;;;;11.02;7.07;;;-1.50;99.90;;;;;;4934471;29;20578;-71
2023/12/01 06:55:26;;;;;;;15.48;9.27;;;-1.50;99.90;;;;;;4933901;29;20210;-70
2023/12/01 06:57:53;;;;;;;9.02;7.38;;;-1.50;99.90;;;;;;4933400;29;20214;-70
2023/12/01 07:00:29;;;;;;;14.57;8.43;;;-1.40;99.90;;;;;;4930457;29;20212;-71
2023/12/01 07:02:57;;;;;;;14.13;8.65;;;-1.50;99.90;;;;;;4931942;29;20234;-70
2023/12/01 07:05:25;;;;;;;15.13;7.68;;;-1.40;99.90;;;;;;4932826;29;20205;-70
2023/12/01 07:07:52;;;;;;;18.38;7.65;;;-1.40;99.90;;;;;;4931525;29;20214;-70
2023/12/01 07:10:19;;;;;;;16.70;11.75;;;-1.40;99.90;;;;;;4933215;29;20209;-70
2023/12/01 07:12:46;;;;;;;22.60;11.90;;;-1.40;99.90;;;;;;4933015;29;20213;-71
2023/12/01 07:15:13;;;;;;;11.52;7.53;;;-1.30;99.90;;;;;;4932486;29;20212;-70
2023/12/01 07:17:40;;;;;;;14.60;10.23;;;-1.40;99.90;;;;;;4932477;29;20210;-70
2023/12/01 07:20:14;;;;;;;17.88;11.38;;;-1.40;99.90;;;;;;4940398;29;20647;-70
2023/12/01 07:22:42;;;;;;;26.70;12.18;;;-1.30;99.90;;;;;;4930632;29;20273;-70
2023/12/01 07:25:10;;;;;;;14.27;8.73;;;-1.30;99.90;;;;;;4928999;29;20744;-71
2023/12/01 07:27:37;;;;;;;13.27;7.22;;;-1.30;99.90;;;;;;4929006;29;20783;-70
2023/12/01 07:30:04;;;;;;;15.30;8.07;;;-1.30;99.90;;;;;;4932036;29;20209;-70
2023/12/01 07:32:31;;;;;;;11.65;10.02;;;-1.30;99.90;;;;;;4931236;29;20624;-70
2023/12/01 07:34:58;;;;;;;21.42;13.68;;;-1.30;99.90;;;;;;4931472;29;20208;-70
2023/12/01 07:37:26;;;;;;;13.82;10.40;;;-1.30;99.90;;;;;;4932086;29;20209;-71
2023/12/01 07:39:52;;;;;;;23.30;10.32;;;-1.30;99.90;;;;;;4930512;29;20205;-70
2023/12/01 07:42:19;;;;;;;19.65;10.23;;;-1.20;99.90;;;;;;4930726;29;20233;-71
2023/12/01 07:44:47;;;;;;;9.43;6.70;;;-1.20;99.90;;;;;;4932799;29;20234;-71
2023/12/01 07:47:15;;;;;;;8.18;7.38;;;-1.20;99.90;;;;;;4927921;29;20214;-71
2023/12/01 07:49:42;;;;;;;21.90;11.80;;;-1.10;99.90;;;;;;4939470;29;20575;-71
2023/12/01 07:52:09;;;;;;;14.07;7.88;;;-1.10;99.90;;;;;;4932870;29;20228;-71
2023/12/01 07:54:37;;;;;;;8.15;6.72;;;-1.10;99.90;;;;;;4930177;29;20205;-71
2023/12/01 07:57:04;;;;;;;11.07;7.03;;;-1.00;99.90;;;;;;4932549;29;20221;-71
2023/12/01 07:59:31;;;;;;;19.65;10.68;;;-1.00;99.90;;;;;;4932105;29;20205;-71
2023/12/01 08:01:58;;;;;;;9.70;7.38;;;-1.00;99.90;;;;;;4929261;29;20256;-71
2023/12/01 08:04:24;;;;;;;12.35;7.97;;;-0.90;99.90;;;;;;4930482;29;20590;-70
2023/12/01 08:06:51;;;;;;;10.73;9.27;;;-0.90;99.90;;;;;;4930560;29;20206;-70
2023/12/01 08:09:18;;;;;;;13.63;8.00;;;-0.90;99.90;;;;;;4928306;29;20221;-71
2023/12/01 08:11:46;;;;;;;17.27;9.32;;;-0.90;99.90;;;;;;4930931;29;20280;-70
2023/12/01 08:14:13;;;;;;;13.05;9.02;;;-0.90;99.90;;;;;;4932365;29;20201;-70
2023/12/01 08:16:40;;;;;;;11.73;8.27;;;-0.90;99.90;;;;;;4930339;29;20613;-70
2023/12/01 08:19:09;;;;;;;19.65;10.00;;;-0.90;99.90;;;;;;4928429;29;20213;-68
2023/12/01 08:21:36;;;;;;;11.82;8.07;;;-0.90;99.90;;;;;;4928903;29;20285;-70
2023/12/01 08:24:04;;;;;;;12.18;9.05;;;-0.90;99.90;;;;;;4928288;29;20236;-70
2023/12/01 08:26:31;;;;;;;17.63;8.43;;;-0.90;99.90;;;;;;4932849;29;20202;-69
2023/12/01 08:28:59;;;;;;;16.33;8.68;;;-0.90;99.90;;;;;;4930562;29;20214;-69
2023/12/01 08:31:26;;;;;;;13.80;9.52;;;-0.80;99.90;;;;;;4932633;29;20229;-70
2023/12/01 08:33:52;;;;;;;11.35;7.93;;;-0.80;99.90;;;;;;4933711;29;20301;-70
2023/12/01 08:36:19;;;;;;;16.30;9.70;;;-0.80;99.90;;;;;;4929982;29;20217;-70
2023/12/01 08:38:46;;;;;;;14.30;8.38;;;-0.80;99.90;;;;;;4928841;29;20265;-69
2023/12/01 08:41:13;;;;;;;22.95;11.80;;;-0.80;99.90;;;;;;4930754;29;20232;-70
2023/12/01 08:43:39;;;;;;;14.95;9.50;;;-0.80;99.90;;;;;;4931965;29;20233;-70
2023/12/01 08:46:08;;;;;;;15.20;9.18;;;-0.70;99.90;;;;;;4929723;29;20218;-70
2023/12/01 08:48:35;;;;;;;14.40;11.25;;;-0.70;99.90;;;;;;4928370;29;20338;-71
2023/12/01 08:51:02;;;;;;;12.75;9.05;;;-0.70;99.90;;;;;;4929703;29;20250;-71
2023/12/01 08:53:28;;;;;;;25.73;10.48;;;-0.60;99.90;;;;;;4927715;29;20290;-71
2023/12/01 08:55:57;;;;;;;15.52;9.55;;;-0.60;99.90;;;;;;4933751;29;20221;-70
2023/12/01 08:58:24;;;;;;;20.48;11.68;;;-0.50;99.90;;;;;;4934683;29;20217;-70
2023/12/01 09:00:51;;;;;;;22.98;10.82;;;-0.50;99.90;;;;;;4934176;29;20234;-71
2023/12/01 09:03:19;;;;;;;15.23;9.20;;;-0.50;99.90;;;;;;4928709;29;20236;-70
2023/12/01 09:05:45;;;;;;;15.10;9.05;;;-0.50;99.90;;;;;;4930241;29;20217;-70
2023/12/01 09:08:12;;;;;;;23.33;13.77;;;-0.40;99.90;;;;;;4933792;29;20213;-70
2023/12/01 09:10:39;;;;;;;20.92;11.57;;;-0.30;99.90;;;;;;4934292;29;20911;-70
2023/12/01 09:13:05;;;;;;;19.92;10.75;;;-0.30;99.90;;;;;;4935239;29;20206;-70
2023/12/01 09:15:32;;;;;;;21.05;10.95;;;-0.30;99.90;;;;;;4934499;29;20202;-70
2023/12/01 09:17:59;;;;;;;26.35;13.57;;;-0.30;99.90;;;;;;4934531;29;20241;-69
2023/12/01 09:20:27;;;;;;;21.27;13.27;;;-0.40;99.90;;;;;;4932449;29;20205;-70
2023/12/01 09:22:53;;;;;;;19.20;10.80;;;-0.40;99.90;;;;;;4929951;29;20214;-70
2023/12/01 09:25:20;;;;;;;21.42;12.80;;;-0.40;99.90;;;;;;4933926;29;20229;-70
2023/12/01 09:27:47;;;;;;;18.85;13.00;;;-0.30;99.90;;;;;;4934241;29;20232;-70
2023/12/01 09:30:16;;;;;;;20.35;12.00;;;-0.30;99.90;;;;;;4932056;29;20233;-70
2023/12/01 09:32:43;;;;;;;16.83;10.48;;;-0.20;99.90;;;;;;4930062;29;20213;-70
2023/12/01 09:35:10;;;;;;;21.40;12.27;;;-0.20;99.90;;;;;;4932174;29;20237;-70
2023/12/01 09:37:38;;;;;;;25.00;13.90;;;-0.20;99.90;;;;;;4935395;29;20225;-70
2023/12/01 09:40:06;;;;;;;18.80;8.90;;;-0.10;99.90;;;;;;4934675;29;20206;-70
2023/12/01 09:42:34;;;;;;;16.10;13.27;;;-0.10;99.90;;;;;;4933622;29;20471;-70
2023/12/01 09:45:01;;;;;;;13.35;9.68;;;-0.10;99.90;;;;;;4932736;29;20230;-70
2023/12/01 09:47:31;;;;;;;14.68;10.38;;;-0.10;99.90;;;;;;4929834;29;20213;-69
2023/12/01 09:49:58;;;;;;;17.77;11.15;;;-0.20;99.90;;;;;;4933386;29;20617;-71
2023/12/01 09:52:25;;;;;;;26.23;12.02;;;0.00;99.90;;;;;;4933049;29;20230;-69
2023/12/01 09:54:53;;;;;;;22.48;12.60;;;0.10;99.90;;;;;;4933940;29;20213;-70
2023/12/01 09:57:21;;;;;;;39.08;26.15;;;0.10;99.90;;;;;;4933919;29;20674;-70
2023/12/01 09:59:49;;;;;;;20.23;13.20;;;0.20;99.90;;;;;;4931557;29;20229;-69
2023/12/01 10:02:15;;;;;;;19.40;10.73;;;0.20;99.90;;;;;;4939041;29;20237;-71
2023/12/01 10:04:42;;;;;;;13.65;9.10;;;0.30;99.90;;;;;;4928362;29;20689;-70
2023/12/01 10:07:09;;;;;;;19.33;11.00;;;0.20;99.90;;;;;;4933054;29;20206;-69
2023/12/01 10:09:38;;;;;;;21.88;10.93;;;0.20;99.90;;;;;;4931137;29;20681;-70
2023/12/01 10:12:10;;;;;;;16.33;9.88;;;0.20;99.90;;;;;;4930689;29;20273;-70
2023/12/01 10:14:37;;;;;;;17.05;10.48;;;0.20;99.90;;;;;;4929776;29;20202;-70
2023/12/01 10:17:05;;;;;;;14.18;9.20;;;0.20;99.90;;;;;;4931073;29;20690;-70
2023/12/01 10:19:33;;;;;;;22.92;9.10;;;0.20;99.90;;;;;;4934439;29;20202;-70
2023/12/01 10:22:00;;;;;;;15.82;8.95;;;0.20;99.90;;;;;;4931561;29;20285;-70
2023/12/01 10:24:27;;;;;;;13.43;8.55;;;0.10;99.90;;;;;;4931828;29;20226;-70
2023/12/01 10:26:56;;;;;;;12.57;9.02;;;0.10;99.90;;;;;;4929965;29;20221;-70
2023/12/01 10:29:31;;;;;;;15.52;9.30;;;0.10;99.90;;;;;;4924850;29;20207;-71
2023/12/01 10:31:59;;;;;;;23.75;10.30;;;0.10;99.90;;;;;;4932359;29;20233;-70
2023/12/01 10:34:26;;;;;;;12.90;8.65;;;0.20;99.90;;;;;;4926246;29;20676;-70
2023/12/01 10:36:53;;;;;;;16.98;12.80;;;0.20;99.90;;;;;;4932803;29;20382;-70
2023/12/01 10:39:25;;;;;;;9.75;8.65;;;0.20;99.90;;;;;;4930771;29;20217;-70
2023/12/01 10:41:53;;;;;;;14.05;9.70;;;0.30;99.90;;;;;;4932142;29;20221;-70
2023/12/01 10:44:23;;;;;;;18.27;9.48;;;0.30;99.90;;;;;;4934864;29;20222;-70
2023/12/01 10:46:52;;;;;;;14.07;9.82;;;0.30;99.90;;;;;;4932477;29;20665;-70
2023/12/01 10:49:19;;;;;;;16.48;10.73;;;0.40;99.90;;;;;;4929986;29;20214;-70
2023/12/01 10:51:50;;;;;;;17.52;8.90;;;0.40;99.90;;;;;;4932633;29;20226;-69
2023/12/01 10:54:17;;;;;;;24.50;9.63;;;0.40;99.90;;;;;;4931759;29;20966;-69
2023/12/01 10:56:59;;;;;;;12.82;8.52;;;0.30;99.90;;;;;;4926679;29;20210;-69
2023/12/01 10:59:27;;;;;;;15.93;10.38;;;0.30;99.90;;;;;;4928980;29;20576;-69
2023/12/01 11:01:56;;;;;;;15.18;10.32;;;0.30;99.90;;;;;;4929304;29;20246;-70
2023/12/01 11:04:26;;;;;;;21.10;11.77;;;0.30;99.90;;;;;;4926344;29;20238;-69
2023/12/01 11:07:13;;;;;;;18.83;12.07;;;0.40;99.90;;;;;;4932008;29;20249;-69
2023/12/01 11:09:51;;;;;;;20.55;12.43;;;0.40;99.90;;;;;;4929163;29;20222;-69
2023/12/01 11:12:27;;;;;;;15.80;9.73;;;0.30;99.90;;;;;;4930942;29;20229;-69
2023/12/01 11:14:54;;;;;;;12.82;8.05;;;0.30;99.90;;;;;;4931453;29;20214;-69
2023/12/01 11:17:23;;;;;;;11.25;8.90;;;0.30;99.90;;;;;;4931857;29;20202;-69
2023/12/01 11:19:50;;;;;;;17.33;9.07;;;0.30;99.90;;;;;;4932762;29;20297;-68
2023/12/01 11:22:32;;;;;;;16.92;10.48;;;0.20;99.90;;;;;;4931839;29;20577;-69
2023/12/01 11:25:01;;;;;;;13.25;9.32;;;0.20;99.90;;;;;;4933359;29;20240;-71
2023/12/01 11:27:28;;;;;;;17.27;9.00;;;0.20;99.90;;;;;;4929692;29;20206;-71
2023/12/01 11:30:00;;;;;;;17.73;10.25;;;0.20;99.90;;;;;;4931464;29;20213;-71
2023/12/01 11:32:33;;;;;;;14.70;8.57;;;0.20;99.90;;;;;;4928447;29;20225;-71
2023/12/01 11:35:09;;;;;;;11.50;10.00;;;0.20;99.90;;;;;;4929400;29;20293;-70
2023/12/01 11:38:04;;;;;;;19.17;8.30;;;0.20;99.90;;;;;;4929419;29;20688;-71
2023/12/01 11:40:40;;;;;;;19.15;11.98;;;0.20;99.90;;;;;;4892304;29;20701;-70
2023/12/01 11:43:09;;;;;;;13.80;9.20;;;0.30;99.90;;;;;;4930141;29;20272;-71
2023/12/01 11:45:41;;;;;;;12.77;8.25;;;0.30;99.90;;;;;;4930683;29;20225;-69
2023/12/01 11:48:09;;;;;;;9.85;7.30;;;0.30;99.90;;;;;;4930654;29;20206;-73
2023/12/01 11:50:40;;;;;;;18.70;11.07;;;0.40;99.90;;;;;;4931427;29;20222;-71
2023/12/01 11:53:12;;;;;;;15.85;10.95;;;0.40;99.90;;;;;;4932185;29;20584;-71
2023/12/01 11:55:39;;;;;;;17.08;8.82;;;0.30;99.90;;;;;;4931282;29;20206;-71
2023/12/01 11:58:06;;;;;;;14.52;10.18;;;0.30;99.90;;;;;;4932161;29;20217;-71
2023/12/01 12:00:34;;;;;;;19.50;9.48;;;0.30;99.90;;;;;;4930958;29;20213;-71
2023/12/01 12:03:00;;;;;;;9.63;8.70;;;0.30;99.90;;;;;;4932275;29;20327;-71
2023/12/01 12:05:28;;;;;;;13.20;8.65;;;0.30;99.90;;;;;;4928624;29;20236;-71
2023/12/01 12:07:55;;;;;;;11.43;9.20;;;0.30;99.90;;;;;;4932040;29;20210;-71
2023/12/01 12:10:23;;;;;;;9.85;8.85;;;0.30;99.90;;;;;;4931085;29;20213;-71
2023/12/01 12:12:50;;;;;;;7.47;6.18;;;0.40;99.90;;;;;;4930934;29;20218;-71
2023/12/01 12:15:17;;;;;;;15.00;9.68;;;0.40;99.90;;;;;;4931865;29;20214;-72
2023/12/01 12:17:43;;;;;;;12.07;8.40;;;0.40;99.90;;;;;;4930299;29;20202;-71
2023/12/01 12:20:11;;;;;;;16.25;10.00;;;0.40;99.90;;;;;;4931782;29;20217;-71
2023/12/01 12:22:40;;;;;;;10.85;8.95;;;0.60;99.90;;;;;;4929861;29;20234;-71
2023/12/01 12:25:09;;;;;;;11.82;6.93;;;0.60;99.90;;;;;;4931287;29;20226;-71
2023/12/01 12:27:40;;;;;;;8.88;8.05;;;0.50;99.90;;;;;;4931193;29;20728;-71
2023/12/01 12:30:09;;;;;;;10.10;7.75;;;0.40;99.90;;;;;;4932366;29;20601;-71
2023/12/01 12:32:36;;;;;;;11.05;6.88;;;0.40;99.90;;;;;;4933340;29;20242;-70
2023/12/01 12:35:02;;;;;;;12.55;7.35;;;0.40;99.90;;;;;;4934851;29;20288;-70
2023/12/01 12:37:30;;;;;;;8.15;6.97;;;0.40;99.90;;;;;;4938547;29;20213;-70
2023/12/01 12:39:59;;;;;;;11.48;8.15;;;0.30;99.90;;;;;;4935147;29;20218;-69
2023/12/01 12:42:26;;;;;;;11.02;8.63;;;0.40;99.90;;;;;;4932904;29;20230;-70
2023/12/01 12:44:53;;;;;;;15.85;9.07;;;0.50;99.90;;;;;;4935637;29;20234;-70
2023/12/01 12:47:21;;;;;;;17.77;11.93;;;0.50;99.90;;;;;;4933723;29;20257;-71
2023/12/01 12:49:48;;;;;;;11.65;10.32;;;0.50;99.90;;;;;;4935569;29;20625;-71
2023/12/01 12:52:14;;;;;;;17.80;10.90;;;0.50;99.90;;;;;;4935082;29;20238;-71
2023/12/01 12:54:42;;;;;;;18.02;10.52;;;0.60;99.90;;;;;;4935291;29;20205;-70
2023/12/01 12:57:10;;;;;;;11.18;8.75;;;0.60;99.90;;;;;;4930540;29;20270;-71
2023/12/01 12:59:37;;;;;;;11.05;7.57;;;0.60;99.90;;;;;;4935616;29;20330;-71
2023/12/01 13:02:04;;;;;;;13.65;10.15;;;0.60;99.90;;;;;;4931092;29;20328;-70
2023/12/01 13:04:31;;;;;;;17.75;10.10;;;0.50;99.90;;;;;;4934238;29;20217;-70
2023/12/01 13:06:58;;;;;;;12.60;8.13;;;0.60;99.90;;;;;;4929532;29;20217;-70
2023/12/01 13:09:24;;;;;;;13.02;6.97;;;0.60;99.90;;;;;;4933061;29;20220;-71
2023/12/01 13:11:51;;;;;;;19.15;10.15;;;0.50;99.90;;;;;;4929606;29;20601;-70
2023/12/01 13:14:19;;;;;;;15.82;10.00;;;0.50;99.90;;;;;;4934655;29;20210;-70
2023/12/01 13:16:46;;;;;;;6.68;5.88;;;0.50;99.90;;;;;;4934871;29;20202;-70
2023/12/01 13:19:13;;;;;;;11.20;8.45;;;0.50;99.90;;;;;;4933054;29;20210;-71
2023/12/01 13:21:39;;;;;;;10.18;8.90;;;0.50;99.90;;;;;;4933446;29;20709;-72
2023/12/01 13:24:07;;;;;;;12.40;9.23;;;0.40;99.90;;;;;;4933095;29;20213;-72
2023/12/01 13:26:34;;;;;;;14.40;9.27;;;0.40;99.90;;;;;;4934088;29;20257;-72
2023/12/01 13:29:01;;;;;;;14.35;9.85;;;0.40;99.90;;;;;;4932863;29;20221;-72
2023/12/01 13:31:29;;;;;;;15.07;9.75;;;0.40;99.90;;;;;;4932923;29;20612;-72
2023/12/01 13:33:56;;;;;;;15.60;9.48;;;0.40;99.90;;;;;;4930877;29;20244;-72
2023/12/01 13:36:22;;;;;;;16.95;8.75;;;0.40;99.90;;;;;;4933867;29;20210;-72
2023/12/01 13:38:50;;;;;;;21.25;9.52;;;0.40;99.90;;;;;;4930820;29;20221;-72
2023/12/01 13:41:17;;;;;;;18.08;8.63;;;0.40;99.90;;;;;;4926919;29;20245;-71
2023/12/01 13:43:43;;;;;;;18.90;10.15;;;0.40;99.90;;;;;;4927840;29;20221;-72
2023/12/01 13:46:10;;;;;;;15.23;8.43;;;0.30;99.90;;;;;;4930960;29;20221;-72
2023/12/01 13:48:38;;;;;;;17.40;11.05;;;0.30;99.90;;;;;;4930964;29;20222;-72
2023/12/01 13:51:05;;;;;;;33.22;22.02;;;0.30;99.90;;;;;;4930437;29;20236;-71
2023/12/01 13:53:32;;;;;;;19.70;10.75;;;0.30;99.90;;;;;;4931684;29;20919;-72
2023/12/01 13:55:59;;;;;;;18.30;9.15;;;0.30;99.90;;;;;;4934525;29;20276;-72
2023/12/01 13:58:26;;;;;;;18.92;10.88;;;0.30;99.90;;;;;;4928424;29;20206;-71
2023/12/01 14:00:53;;;;;;;11.80;9.57;;;0.30;99.90;;;;;;4928674;29;20246;-71
2023/12/01 14:03:19;;;;;;;13.57;9.60;;;0.30;99.90;;;;;;4933690;29;20219;-72
2023/12/01 14:05:47;;;;;;;10.38;7.25;;;0.30;99.90;;;;;;4931593;29;20249;-70
2023/12/01 14:08:14;;;;;;;9.55;7.95;;;0.30;99.90;;;;;;4939440;29;20214;-71
2023/12/01 14:10:41;;;;;;;13.13;7.90;;;0.20;99.90;;;;;;4932474;29;20258;-71
2023/12/01 14:13:08;;;;;;;11.38;9.23;;;0.20;99.90;;;;;;4930431;29;20206;-71
2023/12/01 14:15:35;;;;;;;12.25;8.50;;;0.20;99.90;;;;;;4937524;29;20208;-71
2023/12/01 14:18:02;;;;;;;11.38;6.40;;;0.20;99.90;;;;;;4933263;29;20254;-71
2023/12/01 14:20:30;;;;;;;16.55;12.55;;;0.20;99.90;;;;;;4937795;28;20270;-71
2023/12/01 14:22:58;;;;;;;16.40;10.15;;;0.10;99.90;;;;;;4933170;29;20220;-71
2023/12/01 14:25:25;;;;;;;17.23;10.10;;;0.10;99.90;;;;;;4936062;29;20229;-71
2023/12/01 14:27:51;;;;;;;13.25;10.23;;;0.00;99.90;;;;;;4933369;29;20210;-71
2023/12/01 14:30:18;;;;;;;14.35;10.43;;;0.00;99.90;;;;;;4933104;29;20213;-71
2023/12/01 14:32:45;;;;;;;16.40;10.20;;;0.00;99.90;;;;;;4929081;29;20218;-71
2023/12/01 14:35:12;;;;;;;24.17;11.95;;;0.00;99.90;;;;;;4931225;29;20222;-70
2023/12/01 14:37:39;;;;;;;15.57;9.43;;;-0.10;99.90;;;;;;4933831;29;20201;-71
2023/12/01 14:40:09;;;;;;;15.98;9.00;;;-0.10;99.90;;;;;;4928102;29;20206;-71
2023/12/01 14:42:36;;;;;;;12.23;7.40;;;-0.10;99.90;;;;;;4928134;29;20225;-71
2023/12/01 14:45:05;;;;;;;11.45;10.05;;;-0.10;99.90;;;;;;4932552;29;20214;-71
2023/12/01 14:47:32;;;;;;;12.52;8.77;;;-0.10;99.90;;;;;;4927931;29;20214;-71
2023/12/01 14:49:59;;;;;;;14.65;8.60;;;-0.10;99.90;;;;;;4931961;29;20224;-71
2023/12/01 14:52:26;;;;;;;10.40;8.10;;;-0.10;99.90;;;;;;4931698;29;20233;-71
2023/12/01 14:54:53;;;;;;;13.00;7.75;;;-0.20;99.90;;;;;;4930200;29;20213;-71
2023/12/01 14:57:21;;;;;;;10.98;7.75;;;-0.20;99.90;;;;;;4932790;29;20206;-71
2023/12/01 14:59:47;;;;;;;13.70;8.98;;;-0.20;99.90;;;;;;4930735;29;20213;-70
2023/12/01 15:02:14;;;;;;;15.55;8.85;;;-0.20;99.90;;;;;;4931749;29;20252;-70
2023/12/01 15:04:41;;;;;;;11.57;8.30;;;-0.20;99.90;;;;;;4929128;29;20555;-71
2023/12/01 15:07:08;;;;;;;12.52;9.05;;;-0.20;99.90;;;;;;4931259;29;20709;-71
2023/12/01 15:09:35;;;;;;;10.63;8.63;;;-0.20;99.90;;;;;;4931234;29;20214;-70
2023/12/01 15:12:02;;;;;;;11.85;8.90;;;-0.20;99.90;;;;;;4926549;29;20230;-70
2023/12/01 15:14:29;;;;;;;10.88;7.63;;;-0.10;99.90;;;;;;4925631;29;20205;-70
2023/12/01 15:16:56;;;;;;;13.57;8.65;;;-0.10;99.90;;;;;;4932207;29;20233;-70
2023/12/01 15:19:23;;;;;;;11.02;7.03;;;-0.10;99.90;;;;;;4928875;29;20224;-70
2023/12/01 15:21:49;;;;;;;13.57;8.35;;;-0.10;99.90;;;;;;4929722;29;20225;-72
2023/12/01 15:24:16;;;;;;;18.15;11.60;;;-0.10;99.90;;;;;;4928457;29;20226;-71
2023/12/01 15:26:45;;;;;;;14.45;7.90;;;0.00;99.90;;;;;;4926303;29;20716;-72
2023/12/01 15:29:11;;;;;;;22.35;10.00;;;0.00;99.90;;;;;;4926898;29;20209;-72
2023/12/01 15:31:39;;;;;;;8.73;7.82;;;0.00;99.90;;;;;;4925536;29;20247;-72
2023/12/01 15:34:06;;;;;;;18.80;8.25;;;0.00;99.90;;;;;;4924770;29;20341;-71
2023/12/01 15:36:33;;;;;;;21.77;14.18;;;0.00;99.90;;;;;;4928877;29;20206;-72
2023/12/01 15:39:00;;;;;;;25.77;14.98;;;0.00;99.90;;;;;;4925983;29;20229;-71
2023/12/01 15:41:26;;;;;;;18.85;10.32;;;0.00;99.90;;;;;;4924350;29;20241;-71
2023/12/01 15:43:53;;;;;;;12.18;9.40;;;0.00;99.90;;;;;;4928022;29;20221;-70
2023/12/01 15:46:20;;;;;;;12.57;10.75;;;0.00;99.90;;;;;;4929012;29;20230;-71
2023/12/01 15:48:48;;;;;;;20.65;14.85;;;0.00;99.90;;;;;;4928571;29;20670;-71
2023/12/01 15:51:15;;;;;;;20.38;13.82;;;0.00;99.90;;;;;;4928054;29;20301;-71
2023/12/01 15:53:43;;;;;;;21.23;12.90;;;0.00;99.90;;;;;;4928103;29;20214;-73
2023/12/01 15:56:10;;;;;;;16.40;10.95;;;-0.10;99.90;;;;;;4931852;29;20551;-71
2023/12/01 15:58:37;;;;;;;19.77;11.50;;;-0.10;99.90;;;;;;4925879;29;20209;-71
2023/12/01 16:01:04;;;;;;;15.63;11.63;;;-0.10;99.90;;;;;;4926335;29;20608;-71
2023/12/01 16:03:30;;;;;;;18.42;11.68;;;-0.10;99.90;;;;;;4929460;29;20217;-71
2023/12/01 16:05:58;;;;;;;15.15;10.80;;;-0.10;99.90;;;;;;4931558;29;20234;-71
2023/12/01 16:08:25;;;;;;;13.20;11.80;;;-0.10;99.90;;;;;;4931945;29;20209;-71
2023/12/01 16:10:52;;;;;;;15.63;12.20;;;-0.10;99.90;;;;;;4931874;29;20236;-70
2023/12/01 16:13:19;;;;;;;16.23;8.52;;;-0.10;99.90;;;;;;4931733;29;20213;-71
2023/12/01 16:15:45;;;;;;;17.20;14.70;;;-0.10;99.90;;;;;;4932663;29;20202;-70
2023/12/01 16:18:12;;;;;;;13.18;8.77;;;-0.10;99.90;;;;;;4931439;29;20214;-70
2023/12/01 16:20:41;;;;;;;11.25;7.97;;;-0.10;99.90;;;;;;4932578;29;20229;-70
2023/12/01 16:23:09;;;;;;;13.70;7.57;;;-0.10;99.90;;;;;;4931076;29;20217;-71
2023/12/01 16:25:37;;;;;;;9.65;8.60;;;-0.20;99.90;;;;;;4931701;29;20328;-72
2023/12/01 16:28:04;;;;;;;15.88;10.10;;;-0.20;99.90;;;;;;4922755;29;20237;-72
2023/12/01 16:30:31;;;;;;;14.55;8.68;;;-0.20;99.90;;;;;;4930673;29;20201;-72
2023/12/01 16:32:58;;;;;;;13.07;10.95;;;-0.20;99.90;;;;;;4929740;29;20222;-71
2023/12/01 16:35:25;;;;;;;10.55;7.38;;;-0.20;99.90;;;;;;4931121;29;20218;-71
2023/12/01 16:37:52;;;;;;;12.38;7.25;;;-0.20;99.90;;;;;;4929681;29;20665;-71
2023/12/01 16:40:20;;;;;;;8.68;7.18;;;-0.20;99.90;;;;;;4932397;29;20218;-72
2023/12/01 16:42:47;;;;;;;7.85;6.57;;;-0.20;99.90;;;;;;4928863;29;20214;-72
2023/12/01 16:45:13;;;;;;;17.77;10.02;;;-0.20;99.90;;;;;;4932982;29;20206;-71
2023/12/01 16:47:40;;;;;;;11.95;6.40;;;-0.20;99.90;;;;;;4930577;29;20230;-72
2023/12/01 16:50:08;;;;;;;13.40;8.23;;;-0.20;99.90;;;;;;4932297;29;20237;-71
2023/12/01 16:52:35;;;;;;;12.10;9.70;;;-0.20;99.90;;;;;;4928884;29;20248;-72
2023/12/01 16:55:01;;;;;;;8.20;6.90;;;-0.20;99.90;;;;;;4930964;29;20223;-71
2023/12/01 16:57:29;;;;;;;7.18;5.75;;;-0.20;99.90;;;;;;4931156;29;20217;-71
2023/12/01 16:59:56;;;;;;;10.10;8.10;;;-0.20;99.90;;;;;;4927545;29;20214;-71
2023/12/01 17:02:23;;;;;;;14.48;8.27;;;-0.20;99.90;;;;;;4931088;29;20244;-71
2023/12/01 17:04:50;;;;;;;10.95;7.63;;;-0.20;99.90;;;;;;4934497;29;20201;-71
2023/12/01 17:07:16;;;;;;;9.15;8.05;;;-0.20;99.90;;;;;;4932586;29;20352;-71
2023/12/01 17:09:43;;;;;;;10.82;7.30;;;-0.30;99.90;;;;;;4931982;29;20221;-71
2023/12/01 17:12:10;;;;;;;13.68;7.28;;;-0.30;99.90;;;;;;4929858;29;20234;-71
2023/12/01 17:14:39;;;;;;;21.38;10.98;;;-0.30;99.90;;;;;;4926428;29;20556;-71
2023/12/01 17:17:06;;;;;;;9.32;6.90;;;-0.30;99.90;;;;;;4931990;29;20300;-71
2023/12/01 17:19:32;;;;;;;7.65;5.40;;;-0.30;99.90;;;;;;4930260;29;20221;-70
2023/12/01 17:21:59;;;;;;;6.80;6.15;;;-0.30;99.90;;;;;;4927185;29;20237;-71
2023/12/01 17:24:26;;;;;;;12.60;7.30;;;-0.30;99.90;;;;;;4930228;29;20214;-71
2023/12/01 17:26:53;;;;;;;13.55;7.45;;;-0.30;99.90;;;;;;4930788;29;20233;-71
2023/12/01 17:29:19;;;;;;;6.95;6.35;;;-0.30;99.90;;;;;;4924642;29;20214;-71
2023/12/01 17:31:47;;;;;;;6.25;5.32;;;-0.30;99.90;;;;;;4931480;29;20242;-70
2023/12/01 17:34:14;;;;;;;7.80;6.03;;;-0.30;99.90;;;;;;4929428;29;20210;-71
2023/12/01 17:36:41;;;;;;;10.82;6.97;;;-0.30;99.90;;;;;;4931519;29;20281;-69
2023/12/01 17:39:07;;;;;;;7.25;6.03;;;-0.30;99.90;;;;;;4930486;29;20217;-69
2023/12/01 17:41:34;;;;;;;7.57;5.93;;;-0.30;99.90;;;;;;4929840;29;20229;-68
2023/12/01 17:44:01;;;;;;;7.50;4.88;;;-0.40;99.90;;;;;;4928969;29;20217;-68